sensor_id;sensor_type;location;lat;lon;timestamp;pressure;altitude;pressure_sealevel;temperature;humidity
51229;BME280;37304;52.216;6.874;2023-06-10T00:03:53;101216.75;;;19.72;96.59
51229;BME280;37304;52.216;6.874;2023-06-10T00:08:54;101224.28;;;19.62;99.08
51229;BME280;37304;52.216;6.874;2023-06-10T00:13:55;101235.13;;;19.56;100.00
51229;BME280;37304;52.216;6.874;2023-06-10T00:18:55;101238.19;;;19.46;100.00
51229;BME280;37304;52.216;6.874;2023-06-10T00:24:01;101229.78;;;19.38;100.00
51229;BME280;37304;52.216;6.874;2023-06-10T00:29:03;101231.88;;;19.31;100.00
51229;BME280;37304;52.216;6.874;2023-06-10T00:34:03;101232.44;;;19.19;100.00
51229;BME280;37304;52.216;6.874;2023-06-10T00:39:03;101228.47;;;19.10;100.00
51229;BME280;37304;52.216;6.874;2023-06-10T00:44:07;101236.88;;;18.99;100.00
51229;BME280;37304;52.216;6.874;2023-06-10T00:49:07;101238.97;;;18.91;100.00
51229;BME280;37304;52.216;6.874;2023-06-10T00:54:08;101229.78;;;18.81;100.00
51229;BME280;37304;52.216;6.874;2023-06-10T00:59:09;101238.75;;;18.76;100.00
51229;BME280;37304;52.216;6.874;2023-06-10T01:04:09;101240.72;;;18.71;100.00
51229;BME280;37304;52.216;6.874;2023-06-10T01:09:23;101237.59;;;18.63;100.00
51229;BME280;37304;52.216;6.874;2023-06-10T01:14:25;101247.56;;;18.55;100.00
51229;BME280;37304;52.216;6.874;2023-06-10T01:19:26;101248.72;;;18.49;100.00
51229;BME280;37304;52.216;6.874;2023-06-10T01:24:28;101255.09;;;18.43;100.00
51229;BME280;37304;52.216;6.874;2023-06-10T01:29:36;101261.47;;;18.38;100.00
51229;BME280;37304;52.216;6.874;2023-06-10T01:34:39;101254.81;;;18.29;100.00
51229;BME280;37304;52.216;6.874;2023-06-10T01:39:42;101255.13;;;18.21;100.00
51229;BME280;37304;52.216;6.874;2023-06-10T01:44:43;101258.03;;;18.15;100.00
51229;BME280;37304;52.216;6.874;2023-06-10T01:49:43;101260.09;;;18.08;100.00
51229;BME280;37304;52.216;6.874;2023-06-10T01:54:43;101256.88;;;18.00;100.00
51229;BME280;37304;52.216;6.874;2023-06-10T01:59:44;101255.44;;;17.93;100.00
51229;BME280;37304;52.216;6.874;2023-06-10T02:04:45;101259.28;;;17.84;100.00
51229;BME280;37304;52.216;6.874;2023-06-10T02:09:45;101252.47;;;17.78;100.00
51229;BME280;37304;52.216;6.874;2023-06-10T02:14:45;101258.00;;;17.72;100.00
51229;BME280;37304;52.216;6.874;2023-06-10T02:19:46;101263.50;;;17.66;100.00
51229;BME280;37304;52.216;6.874;2023-06-10T02:24:52;101270.78;;;17.59;100.00
51229;BME280;37304;52.216;6.874;2023-06-10T02:29:53;101272.78;;;17.52;100.00
51229;BME280;37304;52.216;6.874;2023-06-10T02:34:53;101269.53;;;17.45;100.00
51229;BME280;37304;52.216;6.874;2023-06-10T02:39:53;101274.22;;;17.37;100.00
51229;BME280;37304;52.216;6.874;2023-06-10T02:44:54;101268.25;;;17.34;100.00
51229;BME280;37304;52.216;6.874;2023-06-10T02:49:54;101277.28;;;17.26;100.00
51229;BME280;37304;52.216;6.874;2023-06-10T02:54:55;101280.91;;;17.22;100.00
51229;BME280;37304;52.216;6.874;2023-06-10T02:59:55;101275.84;;;17.17;100.00
51229;BME280;37304;52.216;6.874;2023-06-10T03:04:55;101272.66;;;17.09;100.00
51229;BME280;37304;52.216;6.874;2023-06-10T03:09:56;101274.47;;;17.07;100.00
51229;BME280;37304;52.216;6.874;2023-06-10T03:14:56;101277.34;;;17.01;100.00
51229;BME280;37304;52.216;6.874;2023-06-10T03:19:57;101281.88;;;16.96;100.00
51229;BME280;37304;52.216;6.874;2023-06-10T03:24:57;101285.59;;;16.88;100.00
51229;BME280;37304;52.216;6.874;2023-06-10T03:29:57;101294.50;;;16.84;100.00
51229;BME280;37304;52.216;6.874;2023-06-10T03:34:57;101296.50;;;16.78;100.00
51229;BME280;37304;52.216;6.874;2023-06-10T03:39:58;101290.50;;;16.74;100.00
51229;BME280;37304;52.216;6.874;2023-06-10T03:44:58;101297.63;;;16.70;100.00
51229;BME280;37304;52.216;6.874;2023-06-10T03:49:59;101301.22;;;16.68;100.00
51229;BME280;37304;52.216;6.874;2023-06-10T03:54:59;101310.22;;;16.60;100.00
51229;BME280;37304;52.216;6.874;2023-06-10T03:59:59;101308.47;;;16.61;100.00
51229;BME280;37304;52.216;6.874;2023-06-10T04:05:00;101301.69;;;16.54;100.00
51229;BME280;37304;52.216;6.874;2023-06-10T04:10:00;101303.47;;;16.53;100.00
51229;BME280;37304;52.216;6.874;2023-06-10T04:15:01;101305.09;;;16.56;100.00
51229;BME280;37304;52.216;6.874;2023-06-10T04:20:02;101302.50;;;16.56;100.00
51229;BME280;37304;52.216;6.874;2023-06-10T04:25:04;101313.72;;;16.61;100.00
51229;BME280;37304;52.216;6.874;2023-06-10T04:30:05;101314.63;;;16.60;100.00
51229;BME280;37304;52.216;6.874;2023-06-10T04:35:06;101313.50;;;16.67;100.00
51229;BME280;37304;52.216;6.874;2023-06-10T04:40:07;101325.53;;;16.73;100.00
51229;BME280;37304;52.216;6.874;2023-06-10T04:45:08;101318.41;;;16.77;100.00
51229;BME280;37304;52.216;6.874;2023-06-10T04:50:09;101315.78;;;16.77;100.00
51229;BME280;37304;52.216;6.874;2023-06-10T04:55:09;101328.44;;;16.91;100.00
51229;BME280;37304;52.216;6.874;2023-06-10T05:00:11;101321.06;;;17.02;100.00
51229;BME280;37304;52.216;6.874;2023-06-10T05:05:12;101321.63;;;17.10;100.00
51229;BME280;37304;52.216;6.874;2023-06-10T05:10:12;101325.63;;;17.21;100.00
51229;BME280;37304;52.216;6.874;2023-06-10T05:15:13;101324.16;;;17.37;100.00
51229;BME280;37304;52.216;6.874;2023-06-10T05:20:13;101325.47;;;17.49;100.00
51229;BME280;37304;52.216;6.874;2023-06-10T05:25:14;101327.09;;;17.52;100.00
51229;BME280;37304;52.216;6.874;2023-06-10T05:30:14;101314.72;;;17.55;100.00
51229;BME280;37304;52.216;6.874;2023-06-10T05:35:15;101316.41;;;17.56;100.00
51229;BME280;37304;52.216;6.874;2023-06-10T05:40:15;101315.03;;;17.70;100.00
51229;BME280;37304;52.216;6.874;2023-06-10T05:45:16;101320.53;;;17.86;100.00
51229;BME280;37304;52.216;6.874;2023-06-10T05:50:16;101321.75;;;18.01;100.00
51229;BME280;37304;52.216;6.874;2023-06-10T05:55:16;101319.75;;;18.70;100.00
51229;BME280;37304;52.216;6.874;2023-06-10T06:00:17;101328.63;;;19.09;100.00
51229;BME280;37304;52.216;6.874;2023-06-10T06:05:18;101322.63;;;18.65;100.00
51229;BME280;37304;52.216;6.874;2023-06-10T06:10:18;101320.09;;;18.83;100.00
51229;BME280;37304;52.216;6.874;2023-06-10T06:15:18;101314.56;;;18.89;100.00
51229;BME280;37304;52.216;6.874;2023-06-10T06:20:19;101329.16;;;18.96;100.00
51229;BME280;37304;52.216;6.874;2023-06-10T06:25:20;101324.25;;;19.09;100.00
51229;BME280;37304;52.216;6.874;2023-06-10T06:30:20;101329.59;;;19.27;100.00
51229;BME280;37304;52.216;6.874;2023-06-10T06:35:21;101326.72;;;19.50;100.00
51229;BME280;37304;52.216;6.874;2023-06-10T06:40:21;101329.16;;;19.74;100.00
51229;BME280;37304;52.216;6.874;2023-06-10T06:45:22;101327.06;;;20.00;100.00
51229;BME280;37304;52.216;6.874;2023-06-10T06:50:22;101333.38;;;20.15;100.00
51229;BME280;37304;52.216;6.874;2023-06-10T06:55:22;101333.69;;;20.44;100.00
51229;BME280;37304;52.216;6.874;2023-06-10T07:00:23;101332.53;;;20.67;100.00
51229;BME280;37304;52.216;6.874;2023-06-10T07:05:24;101331.59;;;20.86;100.00
51229;BME280;37304;52.216;6.874;2023-06-10T07:10:28;101331.69;;;21.18;100.00
51229;BME280;37304;52.216;6.874;2023-06-10T07:15:28;101341.28;;;21.53;100.00
51229;BME280;37304;52.216;6.874;2023-06-10T07:20:29;101341.22;;;21.87;100.00
51229;BME280;37304;52.216;6.874;2023-06-10T07:25:29;101343.16;;;21.99;100.00
51229;BME280;37304;52.216;6.874;2023-06-10T07:30:29;101342.06;;;22.50;99.12
51229;BME280;37304;52.216;6.874;2023-06-10T07:35:30;101347.38;;;22.64;97.43
51229;BME280;37304;52.216;6.874;2023-06-10T07:40:30;101345.78;;;22.62;96.06
51229;BME280;37304;52.216;6.874;2023-06-10T07:45:30;101356.00;;;23.11;92.26
51229;BME280;37304;52.216;6.874;2023-06-10T07:50:31;101358.13;;;23.35;93.72
51229;BME280;37304;52.216;6.874;2023-06-10T07:55:31;101355.34;;;23.66;91.13
51229;BME280;37304;52.216;6.874;2023-06-10T08:00:31;101346.00;;;24.15;89.65
51229;BME280;37304;52.216;6.874;2023-06-10T08:05:34;101347.94;;;23.98;85.05
51229;BME280;37304;52.216;6.874;2023-06-10T08:10:35;101346.72;;;24.70;85.08
51229;BME280;37304;52.216;6.874;2023-06-10T08:15:35;101350.50;;;25.44;78.88
51229;BME280;37304;52.216;6.874;2023-06-10T08:20:35;101355.66;;;25.21;77.29
51229;BME280;37304;52.216;6.874;2023-06-10T08:25:36;101343.97;;;25.98;73.69
51229;BME280;37304;52.216;6.874;2023-06-10T08:30:36;101339.06;;;26.16;72.82
51229;BME280;37304;52.216;6.874;2023-06-10T08:35:36;101344.31;;;26.77;70.61
51229;BME280;37304;52.216;6.874;2023-06-10T08:40:37;101344.84;;;27.16;67.75
51229;BME280;37304;52.216;6.874;2023-06-10T08:45:37;101338.06;;;27.90;63.30
51229;BME280;37304;52.216;6.874;2023-06-10T08:50:38;101341.53;;;27.46;61.91
51229;BME280;37304;52.216;6.874;2023-06-10T08:55:42;101340.50;;;28.57;59.04
51229;BME280;37304;52.216;6.874;2023-06-10T09:00:42;101335.06;;;28.37;55.01
51229;BME280;37304;52.216;6.874;2023-06-10T09:05:43;101331.38;;;28.81;54.95
51229;BME280;37304;52.216;6.874;2023-06-10T09:10:44;101328.84;;;29.20;54.60
51229;BME280;37304;52.216;6.874;2023-06-10T09:15:45;101324.06;;;29.14;54.21
51229;BME280;37304;52.216;6.874;2023-06-10T09:20:46;101316.41;;;29.60;55.34
51229;BME280;37304;52.216;6.874;2023-06-10T09:25:55;101319.69;;;30.03;51.75
51229;BME280;37304;52.216;6.874;2023-06-10T09:31:04;101320.66;;;29.72;50.92
51229;BME280;37304;52.216;6.874;2023-06-10T09:36:07;101313.66;;;30.68;47.71
51229;BME280;37304;52.216;6.874;2023-06-10T09:41:07;101321.56;;;31.35;47.60
51229;BME280;37304;52.216;6.874;2023-06-10T09:46:18;101310.81;;;32.08;45.02
51229;BME280;37304;52.216;6.874;2023-06-10T09:51:19;101312.88;;;31.23;43.84
51229;BME280;37304;52.216;6.874;2023-06-10T09:56:19;101310.34;;;32.57;44.36
51229;BME280;37304;52.216;6.874;2023-06-10T10:01:20;101312.63;;;31.81;43.86
51229;BME280;37304;52.216;6.874;2023-06-10T10:06:21;101312.69;;;31.53;46.10
51229;BME280;37304;52.216;6.874;2023-06-10T10:11:22;101302.13;;;32.32;44.03
51229;BME280;37304;52.216;6.874;2023-06-10T10:16:37;101307.41;;;31.98;42.05
51229;BME280;37304;52.216;6.874;2023-06-10T10:21:50;101296.97;;;32.39;42.35
51229;BME280;37304;52.216;6.874;2023-06-10T10:26:53;101293.56;;;32.63;40.00
51229;BME280;37304;52.216;6.874;2023-06-10T10:31:56;101288.59;;;33.28;39.39
51229;BME280;37304;52.216;6.874;2023-06-10T10:37:00;101286.19;;;33.08;39.14
51229;BME280;37304;52.216;6.874;2023-06-10T10:42:02;101286.25;;;33.33;37.42
51229;BME280;37304;52.216;6.874;2023-06-10T10:47:07;101279.06;;;32.30;37.58
51229;BME280;37304;52.216;6.874;2023-06-10T10:52:11;101275.09;;;33.11;37.46
51229;BME280;37304;52.216;6.874;2023-06-10T10:57:19;101283.13;;;33.63;37.26
51229;BME280;37304;52.216;6.874;2023-06-10T11:02:42;101272.25;;;32.78;36.87
51229;BME280;37304;52.216;6.874;2023-06-10T11:07:55;101270.38;;;33.05;35.28
51229;BME280;37304;52.216;6.874;2023-06-10T11:12:58;101271.44;;;33.37;35.50
51229;BME280;37304;52.216;6.874;2023-06-10T11:18:20;101261.06;;;33.76;33.07
51229;BME280;37304;52.216;6.874;2023-06-10T11:28:27;101256.34;;;33.61;34.84
51229;BME280;37304;52.216;6.874;2023-06-10T11:33:28;101241.16;;;34.02;31.47
51229;BME280;37304;52.216;6.874;2023-06-10T11:38:29;101257.03;;;32.95;33.37
51229;BME280;37304;52.216;6.874;2023-06-10T11:43:30;101256.13;;;33.21;34.00
51229;BME280;37304;52.216;6.874;2023-06-10T11:48:30;101251.56;;;33.38;34.61
51229;BME280;37304;52.216;6.874;2023-06-10T11:53:31;101251.94;;;34.18;33.57
51229;BME280;37304;52.216;6.874;2023-06-10T11:58:31;101236.47;;;33.71;33.45
51229;BME280;37304;52.216;6.874;2023-06-10T12:03:36;101251.41;;;33.40;34.58
51229;BME280;37304;52.216;6.874;2023-06-10T12:08:43;101243.53;;;33.47;33.92
51229;BME280;37304;52.216;6.874;2023-06-10T12:13:47;101231.41;;;34.01;33.50
51229;BME280;37304;52.216;6.874;2023-06-10T12:18:49;101243.72;;;33.53;33.80
51229;BME280;37304;52.216;6.874;2023-06-10T12:29:23;101228.88;;;33.41;33.32
51229;BME280;37304;52.216;6.874;2023-06-10T12:34:34;101219.94;;;33.82;32.63
51229;BME280;37304;52.216;6.874;2023-06-10T12:39:35;101226.63;;;33.03;34.68
51229;BME280;37304;52.216;6.874;2023-06-10T12:44:39;101216.31;;;32.90;33.86
51229;BME280;37304;52.216;6.874;2023-06-10T12:49:40;101210.75;;;32.83;33.65
51229;BME280;37304;52.216;6.874;2023-06-10T12:54:41;101207.28;;;32.65;33.16
51229;BME280;37304;52.216;6.874;2023-06-10T12:59:42;101207.09;;;33.01;33.54
51229;BME280;37304;52.216;6.874;2023-06-10T13:04:50;101204.94;;;33.79;32.93
51229;BME280;37304;52.216;6.874;2023-06-10T13:09:51;101199.25;;;33.58;32.38
51229;BME280;37304;52.216;6.874;2023-06-10T13:14:51;101194.19;;;33.21;33.20
51229;BME280;37304;52.216;6.874;2023-06-10T13:19:53;101195.00;;;33.38;33.54
51229;BME280;37304;52.216;6.874;2023-06-10T13:24:54;101193.31;;;33.13;33.83
51229;BME280;37304;52.216;6.874;2023-06-10T13:29:54;101186.75;;;33.40;33.40
51229;BME280;37304;52.216;6.874;2023-06-10T13:34:54;101187.00;;;32.79;33.72
51229;BME280;37304;52.216;6.874;2023-06-10T13:39:55;101187.84;;;32.36;34.03
51229;BME280;37304;52.216;6.874;2023-06-10T13:44:56;101172.28;;;33.33;33.99
51229;BME280;37304;52.216;6.874;2023-06-10T13:49:56;101171.97;;;32.68;34.16
51229;BME280;37304;52.216;6.874;2023-06-10T13:54:57;101168.53;;;32.41;34.08
51229;BME280;37304;52.216;6.874;2023-06-10T13:59:57;101172.94;;;32.50;34.59
51229;BME280;37304;52.216;6.874;2023-06-10T14:04:58;101171.09;;;32.16;35.26
51229;BME280;37304;52.216;6.874;2023-06-10T14:09:58;101169.78;;;32.20;35.25
51229;BME280;37304;52.216;6.874;2023-06-10T14:14:59;101169.28;;;32.68;34.52
51229;BME280;37304;52.216;6.874;2023-06-10T14:19:59;101165.25;;;32.72;34.89
51229;BME280;37304;52.216;6.874;2023-06-10T14:25:01;101179.63;;;32.12;36.13
51229;BME280;37304;52.216;6.874;2023-06-10T14:30:01;101162.72;;;32.19;36.95
51229;BME280;37304;52.216;6.874;2023-06-10T14:35:03;101159.09;;;32.02;37.08
51229;BME280;37304;52.216;6.874;2023-06-10T14:40:04;101158.47;;;32.17;35.89
51229;BME280;37304;52.216;6.874;2023-06-10T14:45:06;101161.84;;;31.84;35.90
51229;BME280;37304;52.216;6.874;2023-06-10T14:50:07;101152.06;;;31.38;36.45
51229;BME280;37304;52.216;6.874;2023-06-10T14:55:07;101154.81;;;31.47;35.66
51229;BME280;37304;52.216;6.874;2023-06-10T15:00:08;101148.28;;;31.94;34.94
51229;BME280;37304;52.216;6.874;2023-06-10T15:05:09;101145.75;;;31.92;34.74
51229;BME280;37304;52.216;6.874;2023-06-10T15:10:09;101142.44;;;31.99;34.44
51229;BME280;37304;52.216;6.874;2023-06-10T15:15:10;101137.97;;;31.81;35.64
51229;BME280;37304;52.216;6.874;2023-06-10T15:20:10;101136.69;;;31.22;35.74
51229;BME280;37304;52.216;6.874;2023-06-10T15:25:11;101125.53;;;31.35;35.66
51229;BME280;37304;52.216;6.874;2023-06-10T15:30:11;101120.16;;;31.17;35.93
51229;BME280;37304;52.216;6.874;2023-06-10T15:35:12;101123.91;;;30.70;36.48
51229;BME280;37304;52.216;6.874;2023-06-10T15:40:12;101126.75;;;30.69;37.16
51229;BME280;37304;52.216;6.874;2023-06-10T15:45:12;101128.66;;;30.48;37.34
51229;BME280;37304;52.216;6.874;2023-06-10T15:50:13;101116.34;;;30.56;37.43
51229;BME280;37304;52.216;6.874;2023-06-10T15:55:13;101118.16;;;30.65;38.19
51229;BME280;37304;52.216;6.874;2023-06-10T16:00:14;101110.53;;;30.32;37.67
51229;BME280;37304;52.216;6.874;2023-06-10T16:05:14;101116.47;;;29.98;38.55
51229;BME280;37304;52.216;6.874;2023-06-10T16:10:15;101107.03;;;29.94;39.19
51229;BME280;37304;52.216;6.874;2023-06-10T16:15:15;101102.56;;;29.85;38.93
51229;BME280;37304;52.216;6.874;2023-06-10T16:20:16;101115.00;;;29.66;39.59
51229;BME280;37304;52.216;6.874;2023-06-10T16:25:16;101103.06;;;29.21;39.60
51229;BME280;37304;52.216;6.874;2023-06-10T16:30:23;101100.50;;;29.29;40.43
51229;BME280;37304;52.216;6.874;2023-06-10T16:35:23;101103.34;;;29.08;40.35
51229;BME280;37304;52.216;6.874;2023-06-10T16:40:24;101106.72;;;29.10;40.70
51229;BME280;37304;52.216;6.874;2023-06-10T16:45:24;101114.13;;;28.67;41.93
51229;BME280;37304;52.216;6.874;2023-06-10T16:50:24;101118.00;;;28.43;42.50
51229;BME280;37304;52.216;6.874;2023-06-10T16:55:25;101108.09;;;28.24;43.38
51229;BME280;37304;52.216;6.874;2023-06-10T17:00:25;101117.38;;;27.99;43.87
51229;BME280;37304;52.216;6.874;2023-06-10T17:05:25;101118.63;;;27.95;44.21
51229;BME280;37304;52.216;6.874;2023-06-10T17:10:26;101112.66;;;27.81;45.19
51229;BME280;37304;52.216;6.874;2023-06-10T17:15:26;101112.91;;;27.78;45.34
51229;BME280;37304;52.216;6.874;2023-06-10T17:20:26;101116.19;;;27.60;45.94
51229;BME280;37304;52.216;6.874;2023-06-10T17:25:29;101117.19;;;27.48;46.43
51229;BME280;37304;52.216;6.874;2023-06-10T17:30:29;101107.28;;;27.39;46.96
51229;BME280;37304;52.216;6.874;2023-06-10T17:35:30;101105.06;;;27.44;46.92
51229;BME280;37304;52.216;6.874;2023-06-10T17:40:30;101107.09;;;27.30;47.47
51229;BME280;37304;52.216;6.874;2023-06-10T17:45:30;101113.59;;;27.38;48.15
51229;BME280;37304;52.216;6.874;2023-06-10T17:50:31;101110.03;;;27.27;48.11
51229;BME280;37304;52.216;6.874;2023-06-10T17:55:31;101121.72;;;27.15;48.29
51229;BME280;37304;52.216;6.874;2023-06-10T18:00:32;101130.81;;;27.12;48.80
51229;BME280;37304;52.216;6.874;2023-06-10T18:05:32;101128.03;;;27.14;49.24
51229;BME280;37304;52.216;6.874;2023-06-10T18:10:32;101138.97;;;27.11;49.00
51229;BME280;37304;52.216;6.874;2023-06-10T18:15:33;101144.41;;;27.09;49.72
51229;BME280;37304;52.216;6.874;2023-06-10T18:20:33;101146.28;;;26.97;49.87
51229;BME280;37304;52.216;6.874;2023-06-10T18:25:33;101149.91;;;26.96;50.26
51229;BME280;37304;52.216;6.874;2023-06-10T18:30:34;101160.94;;;26.92;51.27
51229;BME280;37304;52.216;6.874;2023-06-10T18:35:34;101150.16;;;26.82;51.61
51229;BME280;37304;52.216;6.874;2023-06-10T18:40:34;101153.06;;;26.79;51.93
51229;BME280;37304;52.216;6.874;2023-06-10T18:45:35;101156.63;;;26.68;52.38
51229;BME280;37304;52.216;6.874;2023-06-10T18:50:35;101157.72;;;26.54;53.16
51229;BME280;37304;52.216;6.874;2023-06-10T18:55:35;101161.34;;;26.53;54.08
51229;BME280;37304;52.216;6.874;2023-06-10T19:00:36;101164.63;;;26.34;54.82
51229;BME280;37304;52.216;6.874;2023-06-10T19:05:36;101172.38;;;26.37;55.39
51229;BME280;37304;52.216;6.874;2023-06-10T19:10:37;101170.31;;;26.29;55.75
51229;BME280;37304;52.216;6.874;2023-06-10T19:15:37;101177.66;;;26.14;57.16
51229;BME280;37304;52.216;6.874;2023-06-10T19:20:37;101189.13;;;26.03;57.97
51229;BME280;37304;52.216;6.874;2023-06-10T19:25:39;101188.88;;;25.95;58.45
51229;BME280;37304;52.216;6.874;2023-06-10T19:30:41;101197.00;;;25.93;59.22
51229;BME280;37304;52.216;6.874;2023-06-10T19:35:42;101196.06;;;25.58;60.99
51229;BME280;37304;52.216;6.874;2023-06-10T19:40:42;101201.50;;;25.44;61.96
51229;BME280;37304;52.216;6.874;2023-06-10T19:45:43;101197.81;;;25.34;62.99
51229;BME280;37304;52.216;6.874;2023-06-10T19:50:43;101199.06;;;25.16;64.15
51229;BME280;37304;52.216;6.874;2023-06-10T19:55:43;101203.50;;;25.05;65.68
51229;BME280;37304;52.216;6.874;2023-06-10T20:00:44;101212.34;;;24.92;65.79
51229;BME280;37304;52.216;6.874;2023-06-10T20:05:44;101219.47;;;24.79;68.04
51229;BME280;37304;52.216;6.874;2023-06-10T20:10:44;101218.53;;;24.67;69.40
51229;BME280;37304;52.216;6.874;2023-06-10T20:15:45;101216.63;;;24.56;71.32
51229;BME280;37304;52.216;6.874;2023-06-10T20:20:46;101225.03;;;24.50;72.15
51229;BME280;37304;52.216;6.874;2023-06-10T20:25:46;101234.38;;;24.42;73.33
51229;BME280;37304;52.216;6.874;2023-06-10T20:31:19;101239.69;;;24.29;74.97
51229;BME280;37304;52.216;6.874;2023-06-10T20:36:20;101235.00;;;24.20;75.33
51229;BME280;37304;52.216;6.874;2023-06-10T20:41:21;101238.31;;;24.11;76.56
51229;BME280;37304;52.216;6.874;2023-06-10T20:46:22;101246.13;;;23.99;78.32
51229;BME280;37304;52.216;6.874;2023-06-10T20:51:22;101241.31;;;23.92;79.36
51229;BME280;37304;52.216;6.874;2023-06-10T20:56:23;101247.78;;;23.88;80.57
51229;BME280;37304;52.216;6.874;2023-06-10T21:01:23;101252.75;;;23.79;82.59
51229;BME280;37304;52.216;6.874;2023-06-10T21:06:25;101258.34;;;23.75;83.97
51229;BME280;37304;52.216;6.874;2023-06-10T21:11:26;101258.00;;;23.66;86.45
51229;BME280;37304;52.216;6.874;2023-06-10T21:16:27;101257.16;;;23.66;86.82
51229;BME280;37304;52.216;6.874;2023-06-10T21:21:28;101257.56;;;23.60;87.60
51229;BME280;37304;52.216;6.874;2023-06-10T21:26:29;101255.31;;;23.53;87.89
51229;BME280;37304;52.216;6.874;2023-06-10T21:31:30;101268.00;;;23.48;89.05
51229;BME280;37304;52.216;6.874;2023-06-10T21:36:30;101271.81;;;23.44;90.51
51229;BME280;37304;52.216;6.874;2023-06-10T21:41:31;101268.81;;;23.36;90.94
51229;BME280;37304;52.216;6.874;2023-06-10T21:46:31;101272.81;;;23.29;92.82
51229;BME280;37304;52.216;6.874;2023-06-10T21:51:33;101277.91;;;23.17;95.06
51229;BME280;37304;52.216;6.874;2023-06-10T21:56:33;101270.34;;;23.11;96.70
51229;BME280;37304;52.216;6.874;2023-06-10T22:01:33;101278.56;;;23.06;97.75
51229;BME280;37304;52.216;6.874;2023-06-10T22:06:35;101276.44;;;22.98;100.00
51229;BME280;37304;52.216;6.874;2023-06-10T22:11:36;101282.00;;;22.94;100.00
51229;BME280;37304;52.216;6.874;2023-06-10T22:16:36;101271.03;;;22.86;100.00
51229;BME280;37304;52.216;6.874;2023-06-10T22:21:37;101284.16;;;22.73;100.00
51229;BME280;37304;52.216;6.874;2023-06-10T22:26:37;101273.13;;;22.66;100.00
51229;BME280;37304;52.216;6.874;2023-06-10T22:31:38;101275.28;;;22.59;100.00
51229;BME280;37304;52.216;6.874;2023-06-10T22:36:38;101275.84;;;22.50;100.00
51229;BME280;37304;52.216;6.874;2023-06-10T22:41:39;101273.72;;;22.40;100.00
51229;BME280;37304;52.216;6.874;2023-06-10T22:46:40;101277.75;;;22.32;100.00
51229;BME280;37304;52.216;6.874;2023-06-10T22:51:40;101275.59;;;22.24;100.00
51229;BME280;37304;52.216;6.874;2023-06-10T22:56:41;101280.19;;;22.20;100.00
51229;BME280;37304;52.216;6.874;2023-06-10T23:01:41;101276.09;;;22.15;100.00
51229;BME280;37304;52.216;6.874;2023-06-10T23:06:42;101283.47;;;22.09;100.00
51229;BME280;37304;52.216;6.874;2023-06-10T23:11:43;101282.63;;;22.09;100.00
51229;BME280;37304;52.216;6.874;2023-06-10T23:16:43;101282.97;;;22.03;100.00
51229;BME280;37304;52.216;6.874;2023-06-10T23:21:47;101288.63;;;21.96;100.00
51229;BME280;37304;52.216;6.874;2023-06-10T23:26:57;101287.38;;;21.88;100.00
51229;BME280;37304;52.216;6.874;2023-06-10T23:31:57;101295.50;;;21.68;100.00
51229;BME280;37304;52.216;6.874;2023-06-10T23:36:58;101288.59;;;21.66;100.00
51229;BME280;37304;52.216;6.874;2023-06-10T23:41:58;101287.44;;;21.54;100.00
51229;BME280;37304;52.216;6.874;2023-06-10T23:46:59;101296.66;;;21.47;100.00
51229;BME280;37304;52.216;6.874;2023-06-10T23:52:00;101303.66;;;21.32;100.00
51229;BME280;37304;52.216;6.874;2023-06-10T23:57:00;101299.88;;;21.20;100.00
